createdAt,value
2023-01-03T00:01:41.152Z,51.81
2023-01-03T00:04:10.102Z,51.68
2023-01-03T00:06:39.946Z,52.03
2023-01-03T00:09:10.528Z,51.92
2023-01-03T00:11:58.237Z,51.86
2023-01-03T00:14:28.325Z,51.52
2023-01-03T00:17:00.689Z,51.48
2023-01-03T00:19:31.075Z,51.82
2023-01-03T00:21:59.603Z,51.47
2023-01-03T00:24:27.983Z,51.41
2023-01-03T00:26:56.503Z,51.56
2023-01-03T00:29:25.064Z,51.87
2023-01-03T00:31:53.710Z,51.55
2023-01-03T00:34:23.432Z,51.61
2023-01-03T00:36:51.824Z,51.75
2023-01-03T00:39:20.359Z,51.83
2023-01-03T00:41:48.883Z,51.57
2023-01-03T00:44:17.837Z,52.03
2023-01-03T00:46:46.807Z,51.87
2023-01-03T00:49:15.216Z,51.71
2023-01-03T00:51:45.107Z,51.66
2023-01-03T00:54:14.947Z,51.41
2023-01-03T00:56:45.237Z,51.43
2023-01-03T00:59:14.642Z,51.84
2023-01-03T01:01:47.477Z,51.64
2023-01-03T01:04:19.191Z,51.60
2023-01-03T01:06:50.478Z,51.92
2023-01-03T01:09:21.927Z,51.79
2023-01-03T01:11:51.008Z,51.63
2023-01-03T01:14:21.865Z,51.96
2023-01-03T01:16:54.060Z,51.81
2023-01-03T01:19:25.190Z,51.98
2023-01-03T01:21:55.164Z,51.95
2023-01-03T01:24:23.723Z,51.73
2023-01-03T01:26:52.301Z,51.82
2023-01-03T01:29:21.328Z,51.32
2023-01-03T01:31:50.186Z,51.35
2023-01-03T01:34:19.307Z,51.50
2023-01-03T01:36:48.304Z,51.49
2023-01-03T01:39:20.576Z,51.79
2023-01-03T01:42:08.428Z,51.84
2023-01-03T01:44:53.037Z,51.70
2023-01-03T01:47:38.000Z,51.75
2023-01-03T01:50:17.538Z,51.93
2023-01-03T01:52:49.854Z,51.85
2023-01-03T01:55:21.886Z,51.62
2023-01-03T01:57:50.587Z,51.94
2023-01-03T02:00:19.274Z,51.73
2023-01-03T02:02:50.155Z,51.94
2023-01-03T02:05:20.339Z,52.00
2023-01-03T02:07:50.110Z,51.44
2023-01-03T02:10:20.432Z,51.40
2023-01-03T02:13:10.132Z,51.82
2023-01-03T02:16:13.244Z,51.46
2023-01-03T02:18:47.865Z,51.52
2023-01-03T02:21:48.834Z,51.43
2023-01-03T02:24:54.562Z,52.00
2023-01-03T02:28:08.384Z,51.56
2023-01-03T02:30:40.637Z,51.32
2023-01-03T02:33:19.339Z,51.49
2023-01-03T02:35:55.754Z,51.73
2023-01-03T02:38:28.024Z,51.69
2023-01-03T02:40:59.969Z,51.94
2023-01-03T02:43:31.951Z,51.68
2023-01-03T02:46:06.117Z,51.70
2023-01-03T02:48:39.274Z,52.02
2023-01-03T02:51:11.603Z,51.74
2023-01-03T02:53:43.021Z,51.95
2023-01-03T02:56:13.816Z,51.96
2023-01-03T02:58:44.934Z,52.00
2023-01-03T03:01:15.938Z,51.55
2023-01-03T03:03:45.437Z,51.99
2023-01-03T03:06:18.975Z,51.95
2023-01-03T03:08:48.256Z,51.67
2023-01-03T03:11:34.565Z,51.80
2023-01-03T03:14:07.421Z,51.61
2023-01-03T03:16:49.608Z,51.38
2023-01-03T03:19:44.476Z,52.08
2023-01-03T03:22:39.358Z,51.50
2023-01-03T03:25:11.015Z,51.45
2023-01-03T03:27:59.042Z,51.65
2023-01-03T03:30:29.170Z,51.67
2023-01-03T03:33:01.566Z,51.72
2023-01-03T03:35:32.396Z,51.69
2023-01-03T03:38:02.076Z,51.60
2023-01-03T03:40:51.466Z,51.47
2023-01-03T03:43:45.444Z,51.94
2023-01-03T03:46:16.000Z,51.54
2023-01-03T03:49:06.833Z,51.64
2023-01-03T03:51:37.484Z,51.80
2023-01-03T03:54:10.526Z,51.69
2023-01-03T03:56:39.597Z,51.84
2023-01-03T03:59:09.611Z,51.38
2023-01-03T04:01:40.429Z,51.74
2023-01-03T04:04:14.931Z,51.77
2023-01-03T04:06:47.862Z,51.38
2023-01-03T04:09:17.508Z,51.54
2023-01-03T04:11:45.944Z,51.73
2023-01-03T04:14:14.617Z,51.58
2023-01-03T04:16:43.236Z,51.37
2023-01-03T04:19:13.024Z,51.76
2023-01-03T04:21:41.416Z,51.66
2023-01-03T04:24:10.563Z,52.08
2023-01-03T04:26:38.977Z,51.69
2023-01-03T04:29:07.381Z,51.77
2023-01-03T04:31:36.450Z,52.05
2023-01-03T04:34:04.942Z,52.02
2023-01-03T04:36:34.709Z,51.47
2023-01-03T04:39:04.071Z,51.69
2023-01-03T04:41:33.074Z,51.79
2023-01-03T04:44:04.282Z,51.28
2023-01-03T04:46:35.271Z,51.81
2023-01-03T04:49:04.129Z,51.48
2023-01-03T04:51:34.557Z,51.58
2023-01-03T04:54:03.342Z,51.45
2023-01-03T04:56:33.691Z,51.87
2023-01-03T04:59:02.555Z,51.92
2023-01-03T05:01:31.210Z,51.77
2023-01-03T05:04:01.520Z,51.66
2023-01-03T05:06:30.511Z,51.73
2023-01-03T05:09:00.568Z,51.44
2023-01-03T05:11:29.070Z,52.04
2023-01-03T05:13:57.615Z,51.43
2023-01-03T05:16:26.254Z,51.40
2023-01-03T05:18:54.694Z,51.80
2023-01-03T05:21:42.032Z,51.46
2023-01-03T05:24:30.095Z,51.79
2023-01-03T05:26:59.411Z,51.95
2023-01-03T05:29:28.810Z,51.49
2023-01-03T05:31:57.859Z,51.80
2023-01-03T05:34:26.821Z,51.95
2023-01-03T05:36:55.591Z,51.77
2023-01-03T05:39:28.785Z,51.25
2023-01-03T05:42:02.323Z,51.96
2023-01-03T05:44:33.435Z,51.83
2023-01-03T05:47:03.009Z,51.72
2023-01-03T05:49:31.434Z,51.74
2023-01-03T05:51:59.917Z,51.73
2023-01-03T05:54:30.115Z,51.50
2023-01-03T05:56:58.687Z,51.90
2023-01-03T05:59:27.312Z,51.71
2023-01-03T06:01:55.973Z,51.90
2023-01-03T06:04:24.598Z,51.78
2023-01-03T06:06:53.338Z,51.74
2023-01-03T06:09:22.352Z,51.34
2023-01-03T06:11:52.165Z,51.81
2023-01-03T06:14:21.417Z,51.33
2023-01-03T06:17:07.465Z,51.66
2023-01-03T06:19:36.041Z,51.41
2023-01-03T06:22:10.561Z,51.74
2023-01-03T06:24:40.982Z,51.65
2023-01-03T06:27:10.770Z,51.52
2023-01-03T06:29:39.386Z,51.47
2023-01-03T06:32:09.771Z,51.46
2023-01-03T06:34:38.568Z,51.98
2023-01-03T06:37:07.020Z,51.34
2023-01-03T06:39:35.575Z,51.79
2023-01-03T06:42:24.458Z,51.68
2023-01-03T06:45:08.119Z,51.21
2023-01-03T06:47:55.740Z,51.57
2023-01-03T06:50:42.039Z,51.44
2023-01-03T06:53:13.942Z,51.59
2023-01-03T06:55:43.117Z,51.69
2023-01-03T06:58:12.203Z,51.43
2023-01-03T07:00:43.066Z,51.54
2023-01-03T07:03:11.986Z,51.47
2023-01-03T07:05:41.141Z,51.87
2023-01-03T07:08:09.643Z,51.79
2023-01-03T07:10:38.290Z,51.74
2023-01-03T07:13:24.417Z,51.24
2023-01-03T07:15:54.663Z,51.19
2023-01-03T07:18:23.401Z,51.51
2023-01-03T07:20:51.912Z,51.48
2023-01-03T07:23:20.393Z,51.80
2023-01-03T07:25:48.865Z,51.75
2023-01-03T07:28:17.697Z,51.67
2023-01-03T07:30:46.877Z,51.36
2023-01-03T07:33:18.086Z,51.73
2023-01-03T07:35:46.829Z,51.61
2023-01-03T07:38:15.368Z,51.79
2023-01-03T07:40:43.903Z,51.57
2023-01-03T07:43:31.664Z,51.71
2023-01-03T07:46:00.565Z,51.75
2023-01-03T07:48:30.297Z,51.63
2023-01-03T07:50:59.606Z,51.58
2023-01-03T07:53:28.356Z,51.52
2023-01-03T07:56:07.752Z,51.84
2023-01-03T07:58:40.323Z,51.59
2023-01-03T08:01:09.914Z,51.67
2023-01-03T08:03:40.436Z,51.86
2023-01-03T08:06:10.773Z,51.57
2023-01-03T08:08:40.038Z,51.13
2023-01-03T08:11:27.925Z,51.54
2023-01-03T08:13:56.301Z,51.26
2023-01-03T08:16:24.900Z,51.67
2023-01-03T08:18:54.804Z,51.43
2023-01-03T08:21:23.311Z,51.16
2023-01-03T08:23:51.862Z,51.49
2023-01-03T08:26:20.946Z,51.72
2023-01-03T08:28:49.407Z,51.22
2023-01-03T08:31:20.866Z,51.27
2023-01-03T08:33:51.965Z,51.40
2023-01-03T08:36:22.266Z,51.62
2023-01-03T08:38:53.663Z,51.60
2023-01-03T08:41:25.375Z,51.29
2023-01-03T08:43:54.423Z,51.32
2023-01-03T08:46:24.072Z,51.71
2023-01-03T08:48:52.600Z,51.68
2023-01-03T08:51:22.445Z,51.07
2023-01-03T08:53:51.183Z,51.41
2023-01-03T08:56:19.949Z,51.01
2023-01-03T08:58:48.631Z,51.59
2023-01-03T09:01:17.476Z,51.26
2023-01-03T09:03:46.190Z,51.45
2023-01-03T09:06:14.863Z,51.60
2023-01-03T09:08:44.864Z,51.42
2023-01-03T09:11:13.415Z,51.38
2023-01-03T09:13:43.028Z,51.37
2023-01-03T09:16:13.197Z,51.21
2023-01-03T09:18:42.314Z,51.04
2023-01-03T09:21:10.900Z,51.41
2023-01-03T09:23:39.904Z,51.34
2023-01-03T09:26:10.224Z,51.22
2023-01-03T09:28:38.816Z,51.47
2023-01-03T09:31:07.556Z,51.45
2023-01-03T09:33:36.345Z,51.51
2023-01-03T09:36:05.579Z,51.22
2023-01-03T09:38:34.012Z,51.27
2023-01-03T09:41:03.606Z,50.87
2023-01-03T09:43:40.907Z,51.31
2023-01-03T09:46:17.283Z,51.02
2023-01-03T09:48:46.327Z,51.47
2023-01-03T09:51:37.244Z,51.43
2023-01-03T09:54:23.615Z,50.91
2023-01-03T09:57:09.393Z,51.01
2023-01-03T09:59:56.688Z,50.96
2023-01-03T10:02:58.356Z,51.33
2023-01-03T10:05:50.971Z,51.03
2023-01-03T10:08:27.263Z,51.44
2023-01-03T10:11:02.069Z,51.47
2023-01-03T10:13:41.016Z,50.83
2023-01-03T10:16:16.820Z,51.13
2023-01-03T10:19:01.123Z,51.00
2023-01-03T10:21:35.725Z,50.91
2023-01-03T10:24:15.409Z,51.12
2023-01-03T10:26:44.293Z,50.82
2023-01-03T10:29:14.726Z,50.74
2023-01-03T10:31:56.392Z,51.01
2023-01-03T10:34:25.674Z,50.72
2023-01-03T10:36:54.111Z,50.75
2023-01-03T10:39:30.625Z,50.91
2023-01-03T10:42:00.879Z,50.72
2023-01-03T10:44:31.357Z,50.76
2023-01-03T10:47:10.008Z,51.00
2023-01-03T10:49:38.504Z,51.12
2023-01-03T10:52:13.286Z,50.94
2023-01-03T10:54:49.003Z,50.75
2023-01-03T10:57:42.725Z,50.82
2023-01-03T11:00:27.303Z,50.65
2023-01-03T11:03:03.593Z,50.48
2023-01-03T11:05:32.145Z,50.79
2023-01-03T11:08:03.554Z,50.70
2023-01-03T11:10:35.298Z,51.00
2023-01-03T11:13:17.933Z,50.72
2023-01-03T11:15:46.371Z,50.60
2023-01-03T11:18:20.650Z,50.47
2023-01-03T11:20:53.797Z,50.41
2023-01-03T11:23:28.285Z,50.90
2023-01-03T11:26:02.935Z,50.66
2023-01-03T11:28:55.493Z,50.88
2023-01-03T11:31:35.365Z,50.76
2023-01-03T11:34:12.867Z,50.72
2023-01-03T11:36:50.077Z,50.49
2023-01-03T11:39:33.317Z,50.77
2023-01-03T11:42:30.625Z,50.37
2023-01-03T11:45:32.237Z,50.58
2023-01-03T11:48:14.499Z,50.83
2023-01-03T11:50:51.016Z,50.86
2023-01-03T11:53:31.003Z,50.73
2023-01-03T11:56:16.164Z,50.69
2023-01-03T11:59:08.185Z,50.76
2023-01-03T12:02:07.841Z,50.81
2023-01-03T12:04:41.640Z,50.44
2023-01-03T12:07:46.348Z,50.61
2023-01-03T12:10:10.206Z,50.89
2023-01-03T12:12:50.893Z,50.56
2023-01-03T12:15:22.650Z,50.63
2023-01-03T12:17:54.593Z,50.53
2023-01-03T12:20:24.840Z,50.80
2023-01-03T12:22:57.060Z,50.50
2023-01-03T12:25:29.117Z,50.39
2023-01-03T12:28:03.138Z,50.51
2023-01-03T12:30:39.491Z,50.40
2023-01-03T12:33:23.175Z,50.53
2023-01-03T12:35:56.371Z,50.46
2023-01-03T12:38:29.687Z,50.37
2023-01-03T12:41:01.081Z,50.62
2023-01-03T12:43:33.845Z,50.71
2023-01-03T12:46:12.646Z,50.43
2023-01-03T12:48:52.646Z,50.59
2023-01-03T12:51:23.072Z,50.48
2023-01-03T12:54:05.413Z,50.50
2023-01-03T12:57:04.878Z,50.25
2023-01-03T12:59:45.803Z,50.47
2023-01-03T13:02:22.594Z,50.53
2023-01-03T13:04:52.846Z,50.87
2023-01-03T13:07:24.113Z,50.31
2023-01-03T13:10:00.982Z,50.41
2023-01-03T13:12:31.662Z,50.17
2023-01-03T13:15:13.425Z,50.55
2023-01-03T13:17:46.440Z,50.64
2023-01-03T13:20:43.565Z,50.27
2023-01-03T13:23:35.900Z,50.51
2023-01-03T13:26:25.619Z,50.23
2023-01-03T13:29:32.691Z,50.26
2023-01-03T13:32:16.695Z,50.61
2023-01-03T13:34:45.463Z,50.56
2023-01-03T13:37:16.366Z,50.35
2023-01-03T13:40:39.384Z,50.56
2023-01-03T13:43:16.833Z,50.75
2023-01-03T13:45:55.078Z,50.94
2023-01-03T13:48:32.363Z,50.73
2023-01-03T13:51:37.029Z,50.75
2023-01-03T13:54:22.217Z,50.39
2023-01-03T13:57:05.981Z,50.73
2023-01-03T13:59:42.134Z,50.57
2023-01-03T14:02:55.183Z,50.82
2023-01-03T14:05:50.982Z,50.80
2023-01-03T14:08:35.154Z,50.80
2023-01-03T14:11:28.249Z,51.05
2023-01-03T14:14:00.747Z,50.87
2023-01-03T14:16:31.808Z,50.75
2023-01-03T14:19:04.873Z,50.88
2023-01-03T14:21:42.062Z,50.72
2023-01-03T14:24:19.127Z,50.28
2023-01-03T14:26:48.240Z,50.68
2023-01-03T14:29:20.512Z,50.61
2023-01-03T14:31:53.093Z,51.04
2023-01-03T14:34:33.694Z,50.90
2023-01-03T14:37:07.028Z,50.93
2023-01-03T14:42:05.121Z,50.67
2023-01-03T14:44:35.535Z,50.71
2023-01-03T14:47:05.919Z,50.53
2023-01-03T14:49:41.711Z,50.50
2023-01-03T14:52:16.676Z,50.63
2023-01-03T14:54:46.513Z,50.45
2023-01-03T14:57:20.561Z,50.70
2023-01-03T14:59:52.249Z,50.78
2023-01-03T15:02:21.370Z,50.44
2023-01-03T15:04:53.453Z,50.65
2023-01-03T15:07:30.355Z,51.02
2023-01-03T15:10:08.495Z,50.93
2023-01-03T15:12:40.073Z,50.99
2023-01-03T15:15:21.855Z,50.73
2023-01-03T15:17:52.748Z,51.01
2023-01-03T15:20:25.352Z,50.98
2023-01-03T15:22:56.014Z,50.93
2023-01-03T15:25:29.035Z,50.92
2023-01-03T15:27:57.686Z,51.02
2023-01-03T15:30:29.011Z,50.99
2023-01-03T15:33:00.077Z,50.98
2023-01-03T15:35:34.979Z,50.92
2023-01-03T15:38:19.835Z,50.54
2023-01-03T15:40:50.788Z,51.01
2023-01-03T15:43:21.807Z,50.89
2023-01-03T15:46:00.515Z,51.02
2023-01-03T15:48:29.685Z,51.12
2023-01-03T15:50:58.327Z,51.23
2023-01-03T15:53:30.994Z,51.03
2023-01-03T15:56:03.152Z,50.84
2023-01-03T15:58:31.812Z,50.97
2023-01-03T16:01:01.204Z,50.93
2023-01-03T16:03:32.626Z,50.81
2023-01-03T16:06:01.242Z,50.93
2023-01-03T16:08:33.476Z,51.10
2023-01-03T16:11:03.532Z,50.97
2023-01-03T16:13:37.283Z,51.33
2023-01-03T16:16:07.877Z,51.27
2023-01-03T16:18:38.753Z,50.85
2023-01-03T16:21:07.490Z,51.41
2023-01-03T16:23:38.397Z,51.13
2023-01-03T16:26:07.299Z,51.26
2023-01-03T16:28:36.211Z,51.25
2023-01-03T16:31:13.159Z,51.09
2023-01-03T16:33:42.431Z,51.00
2023-01-03T16:36:24.248Z,51.44
2023-01-03T16:38:54.054Z,50.91
2023-01-03T16:41:22.607Z,50.89
2023-01-03T16:43:52.684Z,51.40
2023-01-03T16:46:24.178Z,51.29
2023-01-03T16:48:54.371Z,51.39
2023-01-03T16:51:25.545Z,50.84
2023-01-03T16:53:57.106Z,50.82
2023-01-03T16:56:25.880Z,51.10
2023-01-03T16:58:54.512Z,51.23
2023-01-03T17:01:23.112Z,51.31
2023-01-03T17:03:51.750Z,50.97
2023-01-03T17:06:33.502Z,51.42
2023-01-03T17:09:12.280Z,51.08
2023-01-03T17:11:40.991Z,51.33
2023-01-03T17:14:17.411Z,51.43
2023-01-03T17:16:46.686Z,51.07
2023-01-03T17:20:01.247Z,51.11
2023-01-03T17:22:07.845Z,51.30
2023-01-03T17:24:37.679Z,51.28
2023-01-03T17:27:10.838Z,51.43
2023-01-03T17:29:40.054Z,50.87
2023-01-03T17:32:17.543Z,51.58
2023-01-03T17:34:45.998Z,51.14
2023-01-03T17:37:17.471Z,51.27
2023-01-03T17:39:48.264Z,51.36
2023-01-03T17:42:17.472Z,51.39
2023-01-03T17:45:06.529Z,51.24
2023-01-03T17:48:08.299Z,51.47
2023-01-03T17:50:36.842Z,51.05
2023-01-03T17:53:05.509Z,51.06
2023-01-03T17:55:35.770Z,51.32
2023-01-03T17:58:05.558Z,51.13
2023-01-03T18:00:34.383Z,51.55
2023-01-03T18:03:03.127Z,51.23
2023-01-03T18:05:32.378Z,51.01
2023-01-03T18:08:02.664Z,51.22
2023-01-03T18:10:34.990Z,51.44
2023-01-03T18:13:15.675Z,51.35
2023-01-03T18:15:44.284Z,51.22
2023-01-03T18:18:15.482Z,50.95
2023-01-03T18:20:44.099Z,51.19
2023-01-03T18:23:17.491Z,51.02
2023-01-03T18:25:46.711Z,51.49
2023-01-03T18:28:21.823Z,51.35
2023-01-03T18:30:50.440Z,51.27
2023-01-03T18:33:19.071Z,51.16
2023-01-03T18:35:47.832Z,51.05
2023-01-03T18:38:24.414Z,51.18
2023-01-03T18:40:56.081Z,51.37
2023-01-03T18:43:30.401Z,51.29
2023-01-03T18:45:58.958Z,51.08
2023-01-03T18:48:27.505Z,51.14
2023-01-03T18:50:59.420Z,50.99
2023-01-03T18:53:31.081Z,51.23
2023-01-03T18:55:59.903Z,50.72
2023-01-03T18:58:32.966Z,50.87
2023-01-03T19:01:02.094Z,50.69
2023-01-03T19:03:32.665Z,50.51
2023-01-03T19:06:02.100Z,50.53
2023-01-03T19:08:32.434Z,51.23
2023-01-03T19:11:05.545Z,51.19
2023-01-03T19:13:51.205Z,50.97
2023-01-03T19:16:22.187Z,51.22
2023-01-03T19:18:50.986Z,50.56
2023-01-03T19:21:20.704Z,50.76
2023-01-03T19:23:57.733Z,50.74
2023-01-03T19:26:29.961Z,50.80
2023-01-03T19:29:01.941Z,50.57
2023-01-03T19:31:36.233Z,50.85
2023-01-03T19:34:04.708Z,51.06
2023-01-03T19:36:33.172Z,50.85
2023-01-03T19:39:01.636Z,50.70
2023-01-03T19:41:30.514Z,51.23
2023-01-03T19:44:00.436Z,50.90
2023-01-03T19:46:29.192Z,50.96
2023-01-03T19:48:57.715Z,50.58
2023-01-03T19:51:26.200Z,50.37
2023-01-03T19:53:54.652Z,50.77
2023-01-03T19:56:24.510Z,50.79
2023-01-03T19:58:55.471Z,50.56
2023-01-03T20:01:38.731Z,50.35
2023-01-03T20:04:19.107Z,50.53
2023-01-03T20:06:47.791Z,50.96
2023-01-03T20:09:16.287Z,50.34
2023-01-03T20:11:45.875Z,50.77
2023-01-03T20:14:20.140Z,50.64
2023-01-03T20:16:50.217Z,50.62
2023-01-03T20:19:19.463Z,50.31
2023-01-03T20:21:48.949Z,50.87
2023-01-03T20:24:23.423Z,50.82
2023-01-03T20:26:52.807Z,50.68
2023-01-03T20:29:21.328Z,50.24
2023-01-03T20:31:51.245Z,50.56
2023-01-03T20:34:19.889Z,50.50
2023-01-03T20:36:49.672Z,50.58
2023-01-03T20:39:24.992Z,50.35
2023-01-03T20:41:56.320Z,50.56
2023-01-03T20:44:27.252Z,50.51
2023-01-03T20:46:57.710Z,50.94
2023-01-03T20:49:27.971Z,50.45
2023-01-03T20:51:56.450Z,50.83
2023-01-03T20:54:25.226Z,50.68
2023-01-03T20:56:53.707Z,50.62
2023-01-03T20:59:24.343Z,50.94
2023-01-03T21:01:52.924Z,50.49
2023-01-03T21:04:22.828Z,50.23
2023-01-03T21:06:52.726Z,50.28
2023-01-03T21:09:21.185Z,50.56
2023-01-03T21:11:49.587Z,50.55
2023-01-03T21:14:18.405Z,50.46
2023-01-03T21:16:47.336Z,50.38
2023-01-03T21:19:17.462Z,50.20
2023-01-03T21:21:48.339Z,50.36
2023-01-03T21:24:19.231Z,50.45
2023-01-03T21:26:47.587Z,50.62
2023-01-03T21:29:16.393Z,50.14
2023-01-03T21:31:45.159Z,50.37
2023-01-03T21:34:17.484Z,50.12
2023-01-03T21:36:47.617Z,50.35
2023-01-03T21:39:16.609Z,50.16
2023-01-03T21:42:03.001Z,50.30
2023-01-03T21:44:31.462Z,50.51
2023-01-03T21:46:59.888Z,50.65
2023-01-03T21:49:28.405Z,50.17
2023-01-03T21:51:58.142Z,50.18
2023-01-03T21:54:26.657Z,50.33
2023-01-03T21:56:55.084Z,50.32
2023-01-03T21:59:23.772Z,50.39
2023-01-03T22:02:10.064Z,50.29
2023-01-03T22:04:38.596Z,50.52
2023-01-03T22:07:08.335Z,50.13
2023-01-03T22:09:54.290Z,50.38
2023-01-03T22:12:22.720Z,50.03
2023-01-03T22:14:51.156Z,50.34
2023-01-03T22:17:19.566Z,50.60
2023-01-03T22:19:47.985Z,50.53
2023-01-03T22:22:17.779Z,50.06
2023-01-03T22:24:46.184Z,50.47
2023-01-03T22:27:14.610Z,50.26
2023-01-03T22:29:43.039Z,50.14
2023-01-03T22:32:11.542Z,50.54
2023-01-03T22:34:40.111Z,50.45
2023-01-03T22:37:08.823Z,50.25
2023-01-03T22:39:38.629Z,50.57
2023-01-03T22:42:07.062Z,50.61
2023-01-03T22:44:35.672Z,50.00
2023-01-03T22:47:05.236Z,50.37
2023-01-03T22:49:33.899Z,50.64
2023-01-03T22:52:02.616Z,50.33
2023-01-03T22:54:31.531Z,50.39
2023-01-03T22:57:01.303Z,49.89
2023-01-03T22:59:30.364Z,50.26
2023-01-03T23:01:59.138Z,50.22
2023-01-03T23:04:27.882Z,50.49
2023-01-03T23:06:56.492Z,50.48
2023-01-03T23:09:25.533Z,49.93
2023-01-03T23:12:11.548Z,50.07
2023-01-03T23:14:41.343Z,50.13
2023-01-03T23:17:27.223Z,50.52
2023-01-03T23:19:55.814Z,50.28
2023-01-03T23:22:24.271Z,50.22
2023-01-03T23:24:52.762Z,50.44
2023-01-03T23:27:21.196Z,50.30
2023-01-03T23:29:51.085Z,50.39
2023-01-03T23:32:19.541Z,50.47
2023-01-03T23:34:47.949Z,50.33
2023-01-03T23:37:16.453Z,50.26
2023-01-03T23:39:46.609Z,50.02
2023-01-03T23:42:15.080Z,50.39
2023-01-03T23:44:43.513Z,50.04
2023-01-03T23:47:13.305Z,50.07
2023-01-03T23:49:41.761Z,50.06
2023-01-03T23:52:10.365Z,50.11
2023-01-03T23:54:38.852Z,50.09
2023-01-03T23:57:07.330Z,50.04
2023-01-03T23:59:35.779Z,50.38
